sensor_id;sensor_type;location;lat;lon;timestamp;temperature;humidity
25918;DHT22;13899;51.174;4.456;2023-04-03T00:01:07;5.60;99.90
25918;DHT22;13899;51.174;4.456;2023-04-03T00:03:33;5.60;99.90
25918;DHT22;13899;51.174;4.456;2023-04-03T00:05:59;5.60;99.90
25918;DHT22;13899;51.174;4.456;2023-04-03T00:08:26;5.60;99.90
25918;DHT22;13899;51.174;4.456;2023-04-03T00:10:52;5.50;99.90
25918;DHT22;13899;51.174;4.456;2023-04-03T00:13:17;5.50;99.90
25918;DHT22;13899;51.174;4.456;2023-04-03T00:15:43;5.60;99.90
25918;DHT22;13899;51.174;4.456;2023-04-03T00:18:09;5.50;99.90
25918;DHT22;13899;51.174;4.456;2023-04-03T00:20:35;5.50;99.90
25918;DHT22;13899;51.174;4.456;2023-04-03T00:23:01;5.50;99.90
25918;DHT22;13899;51.174;4.456;2023-04-03T00:25:27;5.40;99.90
25918;DHT22;13899;51.174;4.456;2023-04-03T00:27:52;5.40;99.90
25918;DHT22;13899;51.174;4.456;2023-04-03T00:30:20;5.50;99.90
25918;DHT22;13899;51.174;4.456;2023-04-03T00:32:48;5.40;99.90
25918;DHT22;13899;51.174;4.456;2023-04-03T00:35:14;5.40;99.90
25918;DHT22;13899;51.174;4.456;2023-04-03T00:37:44;5.50;99.90
25918;DHT22;13899;51.174;4.456;2023-04-03T00:40:10;5.50;99.90
25918;DHT22;13899;51.174;4.456;2023-04-03T00:42:37;5.30;99.90
25918;DHT22;13899;51.174;4.456;2023-04-03T00:47:29;5.30;99.90
25918;DHT22;13899;51.174;4.456;2023-04-03T00:49:56;5.40;99.90
25918;DHT22;13899;51.174;4.456;2023-04-03T00:52:25;5.30;99.90
25918;DHT22;13899;51.174;4.456;2023-04-03T00:54:54;5.10;99.90
25918;DHT22;13899;51.174;4.456;2023-04-03T00:57:22;5.20;99.90
25918;DHT22;13899;51.174;4.456;2023-04-03T00:59:55;5.30;99.90
25918;DHT22;13899;51.174;4.456;2023-04-03T01:02:22;5.10;99.90
25918;DHT22;13899;51.174;4.456;2023-04-03T01:04:48;5.20;99.90
25918;DHT22;13899;51.174;4.456;2023-04-03T01:07:21;5.30;99.90
25918;DHT22;13899;51.174;4.456;2023-04-03T01:09:49;5.40;99.90
25918;DHT22;13899;51.174;4.456;2023-04-03T01:12:26;5.30;99.90
25918;DHT22;13899;51.174;4.456;2023-04-03T01:14:57;5.40;99.90
25918;DHT22;13899;51.174;4.456;2023-04-03T01:17:39;5.20;99.90
25918;DHT22;13899;51.174;4.456;2023-04-03T01:25:29;5.10;99.90
25918;DHT22;13899;51.174;4.456;2023-04-03T01:27:55;5.10;99.90
25918;DHT22;13899;51.174;4.456;2023-04-03T01:30:25;5.10;99.90
25918;DHT22;13899;51.174;4.456;2023-04-03T01:32:52;5.00;99.90
25918;DHT22;13899;51.174;4.456;2023-04-03T01:35:18;5.10;99.90
25918;DHT22;13899;51.174;4.456;2023-04-03T01:37:43;5.20;99.90
25918;DHT22;13899;51.174;4.456;2023-04-03T01:40:09;4.90;99.90
25918;DHT22;13899;51.174;4.456;2023-04-03T01:42:35;5.10;99.90
25918;DHT22;13899;51.174;4.456;2023-04-03T01:45:00;5.00;99.90
25918;DHT22;13899;51.174;4.456;2023-04-03T01:47:26;5.00;99.90
25918;DHT22;13899;51.174;4.456;2023-04-03T01:49:51;4.80;99.90
25918;DHT22;13899;51.174;4.456;2023-04-03T01:52:17;4.80;99.90
25918;DHT22;13899;51.174;4.456;2023-04-03T01:54:42;4.80;99.90
25918;DHT22;13899;51.174;4.456;2023-04-03T01:57:08;4.70;99.90
25918;DHT22;13899;51.174;4.456;2023-04-03T01:59:34;4.70;99.90
25918;DHT22;13899;51.174;4.456;2023-04-03T02:01:59;4.60;99.90
25918;DHT22;13899;51.174;4.456;2023-04-03T02:04:25;4.70;99.90
25918;DHT22;13899;51.174;4.456;2023-04-03T02:06:51;4.70;99.90
25918;DHT22;13899;51.174;4.456;2023-04-03T02:09:16;4.70;99.90
25918;DHT22;13899;51.174;4.456;2023-04-03T02:11:42;4.60;99.90
25918;DHT22;13899;51.174;4.456;2023-04-03T02:14:08;4.70;99.90
25918;DHT22;13899;51.174;4.456;2023-04-03T02:16:33;4.60;99.90
25918;DHT22;13899;51.174;4.456;2023-04-03T02:18:59;4.70;99.90
25918;DHT22;13899;51.174;4.456;2023-04-03T02:21:24;4.70;99.90
25918;DHT22;13899;51.174;4.456;2023-04-03T02:23:50;4.70;99.90
25918;DHT22;13899;51.174;4.456;2023-04-03T02:26:16;4.70;99.90
25918;DHT22;13899;51.174;4.456;2023-04-03T02:28:42;4.70;99.90
25918;DHT22;13899;51.174;4.456;2023-04-03T02:31:09;4.70;99.90
25918;DHT22;13899;51.174;4.456;2023-04-03T02:33:36;4.70;99.90
25918;DHT22;13899;51.174;4.456;2023-04-03T02:36:03;4.60;99.90
25918;DHT22;13899;51.174;4.456;2023-04-03T02:38:29;4.60;99.90
25918;DHT22;13899;51.174;4.456;2023-04-03T02:41:02;4.40;99.90
25918;DHT22;13899;51.174;4.456;2023-04-03T02:43:28;4.60;99.90
25918;DHT22;13899;51.174;4.456;2023-04-03T02:45:54;4.70;99.90
25918;DHT22;13899;51.174;4.456;2023-04-03T02:48:19;4.80;99.90
25918;DHT22;13899;51.174;4.456;2023-04-03T02:50:45;4.80;99.90
25918;DHT22;13899;51.174;4.456;2023-04-03T02:53:11;4.80;99.90
25918;DHT22;13899;51.174;4.456;2023-04-03T02:55:36;4.70;99.90
25918;DHT22;13899;51.174;4.456;2023-04-03T02:58:02;4.60;99.90
25918;DHT22;13899;51.174;4.456;2023-04-03T03:00:29;4.70;99.90
25918;DHT22;13899;51.174;4.456;2023-04-03T03:02:54;4.70;99.90
25918;DHT22;13899;51.174;4.456;2023-04-03T03:05:20;4.70;99.90
25918;DHT22;13899;51.174;4.456;2023-04-03T03:07:45;4.70;99.90
25918;DHT22;13899;51.174;4.456;2023-04-03T03:10:11;4.70;99.90
25918;DHT22;13899;51.174;4.456;2023-04-03T03:12:36;4.60;99.90
25918;DHT22;13899;51.174;4.456;2023-04-03T03:15:02;4.50;99.90
25918;DHT22;13899;51.174;4.456;2023-04-03T03:17:28;4.50;99.90
25918;DHT22;13899;51.174;4.456;2023-04-03T03:19:53;4.50;99.90
25918;DHT22;13899;51.174;4.456;2023-04-03T03:22:19;4.50;99.90
25918;DHT22;13899;51.174;4.456;2023-04-03T03:24:45;4.40;99.90
25918;DHT22;13899;51.174;4.456;2023-04-03T03:27:11;4.30;99.90
25918;DHT22;13899;51.174;4.456;2023-04-03T03:29:37;4.30;99.90
25918;DHT22;13899;51.174;4.456;2023-04-03T03:32:03;4.30;99.90
25918;DHT22;13899;51.174;4.456;2023-04-03T03:34:29;4.40;99.90
25918;DHT22;13899;51.174;4.456;2023-04-03T03:36:54;4.40;99.90
25918;DHT22;13899;51.174;4.456;2023-04-03T03:39:20;4.30;99.90
25918;DHT22;13899;51.174;4.456;2023-04-03T03:41:46;4.30;99.90
25918;DHT22;13899;51.174;4.456;2023-04-03T03:44:12;4.50;99.90
25918;DHT22;13899;51.174;4.456;2023-04-03T03:46:38;4.40;99.90
25918;DHT22;13899;51.174;4.456;2023-04-03T03:49:03;4.40;99.90
25918;DHT22;13899;51.174;4.456;2023-04-03T03:51:29;4.30;99.90
25918;DHT22;13899;51.174;4.456;2023-04-03T03:53:55;4.40;99.90
25918;DHT22;13899;51.174;4.456;2023-04-03T03:56:21;4.30;99.90
25918;DHT22;13899;51.174;4.456;2023-04-03T03:58:47;4.40;99.90
25918;DHT22;13899;51.174;4.456;2023-04-03T04:01:13;4.30;99.90
25918;DHT22;13899;51.174;4.456;2023-04-03T04:03:38;4.30;99.90
25918;DHT22;13899;51.174;4.456;2023-04-03T04:06:04;4.30;99.90
25918;DHT22;13899;51.174;4.456;2023-04-03T04:08:29;4.40;99.90
25918;DHT22;13899;51.174;4.456;2023-04-03T04:10:55;4.10;99.90
25918;DHT22;13899;51.174;4.456;2023-04-03T04:13:21;4.20;99.90
25918;DHT22;13899;51.174;4.456;2023-04-03T04:15:46;4.30;99.90
25918;DHT22;13899;51.174;4.456;2023-04-03T04:18:12;4.40;99.90
25918;DHT22;13899;51.174;4.456;2023-04-03T04:20:37;4.40;99.90
25918;DHT22;13899;51.174;4.456;2023-04-03T04:23:03;4.30;99.90
25918;DHT22;13899;51.174;4.456;2023-04-03T04:25:28;4.40;99.90
25918;DHT22;13899;51.174;4.456;2023-04-03T04:27:54;4.30;99.90
25918;DHT22;13899;51.174;4.456;2023-04-03T04:30:20;4.30;99.90
25918;DHT22;13899;51.174;4.456;2023-04-03T04:32:45;4.30;99.90
25918;DHT22;13899;51.174;4.456;2023-04-03T04:35:12;4.30;99.90
25918;DHT22;13899;51.174;4.456;2023-04-03T04:37:37;4.30;99.90
25918;DHT22;13899;51.174;4.456;2023-04-03T04:40:03;4.20;99.90
25918;DHT22;13899;51.174;4.456;2023-04-03T04:42:29;4.20;99.90
25918;DHT22;13899;51.174;4.456;2023-04-03T04:44:55;4.20;99.90
25918;DHT22;13899;51.174;4.456;2023-04-03T04:47:20;4.20;99.90
25918;DHT22;13899;51.174;4.456;2023-04-03T04:49:46;4.20;99.90
25918;DHT22;13899;51.174;4.456;2023-04-03T04:52:13;4.20;99.90
25918;DHT22;13899;51.174;4.456;2023-04-03T04:54:38;4.10;99.90
25918;DHT22;13899;51.174;4.456;2023-04-03T04:57:04;4.20;99.90
25918;DHT22;13899;51.174;4.456;2023-04-03T04:59:30;4.20;99.90
25918;DHT22;13899;51.174;4.456;2023-04-03T05:01:55;4.20;99.90
25918;DHT22;13899;51.174;4.456;2023-04-03T05:04:21;4.20;99.90
25918;DHT22;13899;51.174;4.456;2023-04-03T05:06:47;4.20;99.90
25918;DHT22;13899;51.174;4.456;2023-04-03T05:09:12;4.10;99.90
25918;DHT22;13899;51.174;4.456;2023-04-03T05:11:38;4.10;99.90
25918;DHT22;13899;51.174;4.456;2023-04-03T05:14:03;4.10;99.90
25918;DHT22;13899;51.174;4.456;2023-04-03T05:16:32;4.10;99.90
25918;DHT22;13899;51.174;4.456;2023-04-03T05:18:57;4.10;99.90
25918;DHT22;13899;51.174;4.456;2023-04-03T05:21:24;4.30;99.90
25918;DHT22;13899;51.174;4.456;2023-04-03T05:23:53;4.10;99.90
25918;DHT22;13899;51.174;4.456;2023-04-03T05:26:19;4.20;99.90
25918;DHT22;13899;51.174;4.456;2023-04-03T05:28:46;4.10;99.90
25918;DHT22;13899;51.174;4.456;2023-04-03T05:31:15;4.10;99.90
25918;DHT22;13899;51.174;4.456;2023-04-03T05:34:06;4.10;99.90
25918;DHT22;13899;51.174;4.456;2023-04-03T05:50:26;4.40;99.90
25918;DHT22;13899;51.174;4.456;2023-04-03T05:53:03;4.40;99.90
25918;DHT22;13899;51.174;4.456;2023-04-03T05:55:55;4.40;99.90
25918;DHT22;13899;51.174;4.456;2023-04-03T06:04:30;4.60;99.90
25918;DHT22;13899;51.174;4.456;2023-04-03T06:07:03;4.70;99.90
25918;DHT22;13899;51.174;4.456;2023-04-03T06:09:29;4.60;99.90
25918;DHT22;13899;51.174;4.456;2023-04-03T06:11:56;4.80;99.90
25918;DHT22;13899;51.174;4.456;2023-04-03T06:14:30;4.50;99.90
25918;DHT22;13899;51.174;4.456;2023-04-03T06:16:56;4.70;99.90
25918;DHT22;13899;51.174;4.456;2023-04-03T06:19:29;4.90;99.90
25918;DHT22;13899;51.174;4.456;2023-04-03T06:22:48;5.00;99.90
25918;DHT22;13899;51.174;4.456;2023-04-03T06:30:46;5.20;99.90
25918;DHT22;13899;51.174;4.456;2023-04-03T06:37:04;5.20;99.90
25918;DHT22;13899;51.174;4.456;2023-04-03T06:39:35;4.90;99.90
25918;DHT22;13899;51.174;4.456;2023-04-03T06:42:01;5.10;99.90
25918;DHT22;13899;51.174;4.456;2023-04-03T06:44:27;4.60;99.90
25918;DHT22;13899;51.174;4.456;2023-04-03T06:47:22;4.50;99.90
25918;DHT22;13899;51.174;4.456;2023-04-03T06:49:56;4.50;99.90
25918;DHT22;13899;51.174;4.456;2023-04-03T06:52:40;4.60;99.90
25918;DHT22;13899;51.174;4.456;2023-04-03T06:55:06;4.60;99.90
25918;DHT22;13899;51.174;4.456;2023-04-03T06:57:31;4.80;99.90
25918;DHT22;13899;51.174;4.456;2023-04-03T06:59:57;4.90;99.90
25918;DHT22;13899;51.174;4.456;2023-04-03T07:02:23;5.30;99.90
25918;DHT22;13899;51.174;4.456;2023-04-03T07:04:50;5.50;99.90
25918;DHT22;13899;51.174;4.456;2023-04-03T07:07:23;5.40;99.90
25918;DHT22;13899;51.174;4.456;2023-04-03T07:10:05;5.20;99.90
25918;DHT22;13899;51.174;4.456;2023-04-03T07:12:34;5.10;99.90
25918;DHT22;13899;51.174;4.456;2023-04-03T07:15:04;5.30;99.90
25918;DHT22;13899;51.174;4.456;2023-04-03T07:17:52;5.00;99.90
25918;DHT22;13899;51.174;4.456;2023-04-03T07:20:22;4.90;99.90
25918;DHT22;13899;51.174;4.456;2023-04-03T07:22:50;5.10;99.90
25918;DHT22;13899;51.174;4.456;2023-04-03T07:25:16;5.00;99.90
25918;DHT22;13899;51.174;4.456;2023-04-03T07:27:42;5.00;99.90
25918;DHT22;13899;51.174;4.456;2023-04-03T07:30:09;5.00;99.90
25918;DHT22;13899;51.174;4.456;2023-04-03T07:32:35;5.30;99.90
25918;DHT22;13899;51.174;4.456;2023-04-03T07:35:03;5.40;99.90
25918;DHT22;13899;51.174;4.456;2023-04-03T07:37:29;5.30;99.90
25918;DHT22;13899;51.174;4.456;2023-04-03T07:39:55;5.60;99.90
25918;DHT22;13899;51.174;4.456;2023-04-03T07:42:22;5.40;99.90
25918;DHT22;13899;51.174;4.456;2023-04-03T07:44:48;5.70;99.90
25918;DHT22;13899;51.174;4.456;2023-04-03T07:47:15;5.70;99.90
25918;DHT22;13899;51.174;4.456;2023-04-03T07:49:43;5.80;99.90
25918;DHT22;13899;51.174;4.456;2023-04-03T07:52:09;6.00;99.90
25918;DHT22;13899;51.174;4.456;2023-04-03T07:54:40;6.20;99.90
25918;DHT22;13899;51.174;4.456;2023-04-03T07:57:08;6.10;99.90
25918;DHT22;13899;51.174;4.456;2023-04-03T07:59:35;6.20;99.90
25918;DHT22;13899;51.174;4.456;2023-04-03T08:02:01;6.00;99.90
25918;DHT22;13899;51.174;4.456;2023-04-03T08:04:35;5.90;99.90
25918;DHT22;13899;51.174;4.456;2023-04-03T08:09:38;6.10;99.90
25918;DHT22;13899;51.174;4.456;2023-04-03T08:12:06;5.90;99.90
25918;DHT22;13899;51.174;4.456;2023-04-03T08:14:35;6.00;99.90
25918;DHT22;13899;51.174;4.456;2023-04-03T08:17:02;6.20;99.90
25918;DHT22;13899;51.174;4.456;2023-04-03T08:19:40;6.90;99.90
25918;DHT22;13899;51.174;4.456;2023-04-03T08:22:29;6.70;99.90
25918;DHT22;13899;51.174;4.456;2023-04-03T08:25:03;6.40;99.90
25918;DHT22;13899;51.174;4.456;2023-04-03T08:27:28;6.60;99.90
25918;DHT22;13899;51.174;4.456;2023-04-03T08:29:59;6.70;99.90
25918;DHT22;13899;51.174;4.456;2023-04-03T08:32:30;6.80;99.90
25918;DHT22;13899;51.174;4.456;2023-04-03T08:34:57;7.00;99.90
25918;DHT22;13899;51.174;4.456;2023-04-03T08:49:53;7.10;99.90
25918;DHT22;13899;51.174;4.456;2023-04-03T08:52:51;7.20;99.90
25918;DHT22;13899;51.174;4.456;2023-04-03T08:58:05;7.90;99.90
25918;DHT22;13899;51.174;4.456;2023-04-03T09:06:39;8.30;99.90
25918;DHT22;13899;51.174;4.456;2023-04-03T09:09:33;8.50;99.90
25918;DHT22;13899;51.174;4.456;2023-04-03T09:12:19;8.70;99.90
25918;DHT22;13899;51.174;4.456;2023-04-03T09:15:22;8.70;99.90
25918;DHT22;13899;51.174;4.456;2023-04-03T09:18:19;9.00;99.90
25918;DHT22;13899;51.174;4.456;2023-04-03T09:21:25;9.10;99.90
25918;DHT22;13899;51.174;4.456;2023-04-03T09:24:16;9.90;99.90
25918;DHT22;13899;51.174;4.456;2023-04-03T09:27:03;11.10;99.90
25918;DHT22;13899;51.174;4.456;2023-04-03T09:29:54;11.30;99.90
25918;DHT22;13899;51.174;4.456;2023-04-03T09:51:28;15.10;99.90
25918;DHT22;13899;51.174;4.456;2023-04-03T10:06:49;14.90;99.90
25918;DHT22;13899;51.174;4.456;2023-04-03T10:09:39;14.80;99.90
25918;DHT22;13899;51.174;4.456;2023-04-03T10:12:12;15.50;99.90
25918;DHT22;13899;51.174;4.456;2023-04-03T10:14:54;15.80;99.90
25918;DHT22;13899;51.174;4.456;2023-04-03T10:20:25;17.10;98.70
25918;DHT22;13899;51.174;4.456;2023-04-03T10:23:21;16.40;98.70
25918;DHT22;13899;51.174;4.456;2023-04-03T10:32:23;15.80;97.30
25918;DHT22;13899;51.174;4.456;2023-04-03T10:35:08;16.30;95.70
25918;DHT22;13899;51.174;4.456;2023-04-03T10:38:01;16.40;94.20
25918;DHT22;13899;51.174;4.456;2023-04-03T10:43:34;17.20;92.50
25918;DHT22;13899;51.174;4.456;2023-04-03T10:46:15;18.50;90.00
25918;DHT22;13899;51.174;4.456;2023-04-03T10:51:49;18.60;84.60
25918;DHT22;13899;51.174;4.456;2023-04-03T10:54:26;17.60;88.10
25918;DHT22;13899;51.174;4.456;2023-04-03T10:57:08;17.10;83.40
25918;DHT22;13899;51.174;4.456;2023-04-03T10:59:50;17.40;79.30
25918;DHT22;13899;51.174;4.456;2023-04-03T11:02:51;16.70;80.10
25918;DHT22;13899;51.174;4.456;2023-04-03T11:05:44;16.00;82.00
25918;DHT22;13899;51.174;4.456;2023-04-03T11:08:18;16.40;83.20
25918;DHT22;13899;51.174;4.456;2023-04-03T11:10:50;16.80;78.80
25918;DHT22;13899;51.174;4.456;2023-04-03T11:16:02;17.60;77.50
25918;DHT22;13899;51.174;4.456;2023-04-03T11:18:37;18.60;75.90
25918;DHT22;13899;51.174;4.456;2023-04-03T11:21:19;17.90;78.10
25918;DHT22;13899;51.174;4.456;2023-04-03T11:23:49;19.00;73.10
25918;DHT22;13899;51.174;4.456;2023-04-03T11:26:17;18.60;65.80
25918;DHT22;13899;51.174;4.456;2023-04-03T11:28:53;18.20;67.60
25918;DHT22;13899;51.174;4.456;2023-04-03T11:34:33;20.30;62.60
25918;DHT22;13899;51.174;4.456;2023-04-03T11:37:05;19.60;62.00
25918;DHT22;13899;51.174;4.456;2023-04-03T11:39:54;19.90;59.90
25918;DHT22;13899;51.174;4.456;2023-04-03T11:42:32;20.70;56.00
25918;DHT22;13899;51.174;4.456;2023-04-03T11:47:54;20.30;51.50
25918;DHT22;13899;51.174;4.456;2023-04-03T12:00:46;20.10;49.60
25918;DHT22;13899;51.174;4.456;2023-04-03T12:16:27;19.40;45.30
25918;DHT22;13899;51.174;4.456;2023-04-03T12:18:58;19.50;46.00
25918;DHT22;13899;51.174;4.456;2023-04-03T12:38:26;20.60;45.60
25918;DHT22;13899;51.174;4.456;2023-04-03T12:41:18;20.20;45.90
25918;DHT22;13899;51.174;4.456;2023-04-03T12:46:37;20.50;43.80
25918;DHT22;13899;51.174;4.456;2023-04-03T12:49:22;21.40;42.30
25918;DHT22;13899;51.174;4.456;2023-04-03T12:51:52;20.60;43.30
25918;DHT22;13899;51.174;4.456;2023-04-03T12:54:27;21.70;42.90
25918;DHT22;13899;51.174;4.456;2023-04-03T12:57:28;22.10;42.60
25918;DHT22;13899;51.174;4.456;2023-04-03T12:59:54;23.10;42.70
25918;DHT22;13899;51.174;4.456;2023-04-03T13:02:29;22.80;42.40
25918;DHT22;13899;51.174;4.456;2023-04-03T13:04:58;22.20;42.20
25918;DHT22;13899;51.174;4.456;2023-04-03T13:07:26;22.50;42.60
25918;DHT22;13899;51.174;4.456;2023-04-03T13:09:56;22.30;43.40
25918;DHT22;13899;51.174;4.456;2023-04-03T13:12:23;22.90;41.40
25918;DHT22;13899;51.174;4.456;2023-04-03T13:14:57;23.90;42.50
25918;DHT22;13899;51.174;4.456;2023-04-03T13:17:24;24.20;39.60
25918;DHT22;13899;51.174;4.456;2023-04-03T13:19:55;24.40;40.50
25918;DHT22;13899;51.174;4.456;2023-04-03T13:22:42;23.20;40.70
25918;DHT22;13899;51.174;4.456;2023-04-03T13:25:14;22.10;41.20
25918;DHT22;13899;51.174;4.456;2023-04-03T13:27:47;22.40;42.30
25918;DHT22;13899;51.174;4.456;2023-04-03T13:32:46;23.70;40.30
25918;DHT22;13899;51.174;4.456;2023-04-03T13:35:38;22.10;40.20
25918;DHT22;13899;51.174;4.456;2023-04-03T13:38:26;23.50;40.90
25918;DHT22;13899;51.174;4.456;2023-04-03T13:40:54;23.60;40.40
25918;DHT22;13899;51.174;4.456;2023-04-03T13:43:25;23.60;38.70
25918;DHT22;13899;51.174;4.456;2023-04-03T13:46:00;22.80;40.50
25918;DHT22;13899;51.174;4.456;2023-04-03T13:48:26;22.80;40.60
25918;DHT22;13899;51.174;4.456;2023-04-03T13:53:21;22.60;42.30
25918;DHT22;13899;51.174;4.456;2023-04-03T13:56:05;22.90;39.70
25918;DHT22;13899;51.174;4.456;2023-04-03T13:58:34;23.90;39.40
25918;DHT22;13899;51.174;4.456;2023-04-03T14:01:17;24.00;39.80
25918;DHT22;13899;51.174;4.456;2023-04-03T14:03:53;24.20;39.10
25918;DHT22;13899;51.174;4.456;2023-04-03T14:06:19;24.60;38.60
25918;DHT22;13899;51.174;4.456;2023-04-03T14:08:45;24.80;38.20
25918;DHT22;13899;51.174;4.456;2023-04-03T14:11:26;25.30;39.70
25918;DHT22;13899;51.174;4.456;2023-04-03T14:13:55;25.90;38.60
25918;DHT22;13899;51.174;4.456;2023-04-03T14:16:26;26.10;38.10
25918;DHT22;13899;51.174;4.456;2023-04-03T14:18:53;25.10;37.30
25918;DHT22;13899;51.174;4.456;2023-04-03T14:21:21;25.20;36.70
25918;DHT22;13899;51.174;4.456;2023-04-03T14:23:48;24.70;37.40
25918;DHT22;13899;51.174;4.456;2023-04-03T14:26:17;24.70;38.20
25918;DHT22;13899;51.174;4.456;2023-04-03T14:28:44;25.90;37.50
25918;DHT22;13899;51.174;4.456;2023-04-03T14:31:12;24.50;36.10
25918;DHT22;13899;51.174;4.456;2023-04-03T14:33:38;24.90;36.70
25918;DHT22;13899;51.174;4.456;2023-04-03T14:36:16;23.50;37.90
25918;DHT22;13899;51.174;4.456;2023-04-03T14:38:43;23.70;38.70
25918;DHT22;13899;51.174;4.456;2023-04-03T14:41:12;24.40;38.30
25918;DHT22;13899;51.174;4.456;2023-04-03T14:43:38;26.60;38.00
25918;DHT22;13899;51.174;4.456;2023-04-03T14:46:05;25.60;36.60
25918;DHT22;13899;51.174;4.456;2023-04-03T14:48:31;25.40;36.60
25918;DHT22;13899;51.174;4.456;2023-04-03T14:51:00;25.30;36.90
25918;DHT22;13899;51.174;4.456;2023-04-03T14:53:25;24.80;36.10
25918;DHT22;13899;51.174;4.456;2023-04-03T14:55:52;24.40;37.50
25918;DHT22;13899;51.174;4.456;2023-04-03T14:58:20;24.40;37.20
25918;DHT22;13899;51.174;4.456;2023-04-03T15:00:47;23.60;37.90
25918;DHT22;13899;51.174;4.456;2023-04-03T15:03:19;23.90;38.70
25918;DHT22;13899;51.174;4.456;2023-04-03T15:05:47;25.60;37.40
25918;DHT22;13899;51.174;4.456;2023-04-03T15:08:22;25.60;37.00
25918;DHT22;13899;51.174;4.456;2023-04-03T15:10:50;23.70;36.40
25918;DHT22;13899;51.174;4.456;2023-04-03T15:13:19;23.50;36.70
25918;DHT22;13899;51.174;4.456;2023-04-03T15:15:46;23.30;37.30
25918;DHT22;13899;51.174;4.456;2023-04-03T15:18:19;22.20;37.00
25918;DHT22;13899;51.174;4.456;2023-04-03T15:20:47;21.80;37.70
25918;DHT22;13899;51.174;4.456;2023-04-03T15:23:15;21.90;37.60
25918;DHT22;13899;51.174;4.456;2023-04-03T15:25:46;21.20;37.60
25918;DHT22;13899;51.174;4.456;2023-04-03T15:30:58;22.30;38.00
25918;DHT22;13899;51.174;4.456;2023-04-03T15:33:25;21.60;37.20
25918;DHT22;13899;51.174;4.456;2023-04-03T15:35:53;20.80;39.10
25918;DHT22;13899;51.174;4.456;2023-04-03T15:38:19;20.90;39.50
25918;DHT22;13899;51.174;4.456;2023-04-03T15:40:45;20.90;39.70
25918;DHT22;13899;51.174;4.456;2023-04-03T15:43:14;20.40;39.80
25918;DHT22;13899;51.174;4.456;2023-04-03T15:45:40;20.30;39.90
25918;DHT22;13899;51.174;4.456;2023-04-03T15:48:06;20.10;41.70
25918;DHT22;13899;51.174;4.456;2023-04-03T15:50:34;20.40;41.60
25918;DHT22;13899;51.174;4.456;2023-04-03T15:53:01;20.70;42.00
25918;DHT22;13899;51.174;4.456;2023-04-03T15:55:30;21.40;41.70
25918;DHT22;13899;51.174;4.456;2023-04-03T15:57:56;20.30;40.30
25918;DHT22;13899;51.174;4.456;2023-04-03T16:00:23;20.20;41.10
25918;DHT22;13899;51.174;4.456;2023-04-03T16:02:52;20.70;41.50
25918;DHT22;13899;51.174;4.456;2023-04-03T16:05:19;19.70;41.20
25918;DHT22;13899;51.174;4.456;2023-04-03T16:07:45;19.30;41.50
25918;DHT22;13899;51.174;4.456;2023-04-03T16:10:12;19.00;42.90
25918;DHT22;13899;51.174;4.456;2023-04-03T16:12:39;18.40;42.90
25918;DHT22;13899;51.174;4.456;2023-04-03T16:15:06;17.50;43.90
25918;DHT22;13899;51.174;4.456;2023-04-03T16:17:34;17.10;44.80
25918;DHT22;13899;51.174;4.456;2023-04-03T16:20:02;17.10;45.10
25918;DHT22;13899;51.174;4.456;2023-04-03T16:22:29;17.30;44.90
25918;DHT22;13899;51.174;4.456;2023-04-03T16:24:55;16.60;46.60
25918;DHT22;13899;51.174;4.456;2023-04-03T16:27:22;16.70;46.70
25918;DHT22;13899;51.174;4.456;2023-04-03T16:29:54;17.30;45.20
25918;DHT22;13899;51.174;4.456;2023-04-03T16:32:21;17.70;46.00
25918;DHT22;13899;51.174;4.456;2023-04-03T16:34:48;18.00;45.30
25918;DHT22;13899;51.174;4.456;2023-04-03T16:37:15;17.00;45.80
25918;DHT22;13899;51.174;4.456;2023-04-03T16:39:48;17.30;46.40
25918;DHT22;13899;51.174;4.456;2023-04-03T16:42:15;17.00;47.20
25918;DHT22;13899;51.174;4.456;2023-04-03T16:44:41;17.40;47.50
25918;DHT22;13899;51.174;4.456;2023-04-03T16:47:07;18.10;46.80
25918;DHT22;13899;51.174;4.456;2023-04-03T16:49:34;17.90;47.10
25918;DHT22;13899;51.174;4.456;2023-04-03T16:52:04;17.60;46.10
25918;DHT22;13899;51.174;4.456;2023-04-03T16:54:31;16.90;47.00
25918;DHT22;13899;51.174;4.456;2023-04-03T16:56:57;17.00;48.20
25918;DHT22;13899;51.174;4.456;2023-04-03T16:59:23;17.00;47.40
25918;DHT22;13899;51.174;4.456;2023-04-03T17:01:49;16.80;47.50
25918;DHT22;13899;51.174;4.456;2023-04-03T17:04:14;16.30;47.70
25918;DHT22;13899;51.174;4.456;2023-04-03T17:06:40;16.20;48.30
25918;DHT22;13899;51.174;4.456;2023-04-03T17:09:06;16.10;48.90
25918;DHT22;13899;51.174;4.456;2023-04-03T17:11:32;16.00;49.60
25918;DHT22;13899;51.174;4.456;2023-04-03T17:13:58;15.90;49.40
25918;DHT22;13899;51.174;4.456;2023-04-03T17:16:24;15.00;50.80
25918;DHT22;13899;51.174;4.456;2023-04-03T17:18:52;14.30;51.80
25918;DHT22;13899;51.174;4.456;2023-04-03T17:21:18;13.70;53.20
25918;DHT22;13899;51.174;4.456;2023-04-03T17:23:47;13.50;53.40
25918;DHT22;13899;51.174;4.456;2023-04-03T17:26:14;13.30;55.30
25918;DHT22;13899;51.174;4.456;2023-04-03T17:28:40;12.80;56.30
25918;DHT22;13899;51.174;4.456;2023-04-03T17:31:06;12.50;58.70
25918;DHT22;13899;51.174;4.456;2023-04-03T17:33:32;12.30;61.80
25918;DHT22;13899;51.174;4.456;2023-04-03T17:36:00;12.00;63.30
25918;DHT22;13899;51.174;4.456;2023-04-03T17:38:28;12.20;64.10
25918;DHT22;13899;51.174;4.456;2023-04-03T17:40:58;12.20;65.40
25918;DHT22;13899;51.174;4.456;2023-04-03T17:43:24;11.90;63.90
25918;DHT22;13899;51.174;4.456;2023-04-03T17:45:50;11.70;66.50
25918;DHT22;13899;51.174;4.456;2023-04-03T17:48:16;11.90;67.10
25918;DHT22;13899;51.174;4.456;2023-04-03T17:50:41;11.70;66.90
25918;DHT22;13899;51.174;4.456;2023-04-03T17:53:07;11.80;67.70
25918;DHT22;13899;51.174;4.456;2023-04-03T17:55:32;11.60;70.80
25918;DHT22;13899;51.174;4.456;2023-04-03T17:57:58;11.70;71.90
25918;DHT22;13899;51.174;4.456;2023-04-03T18:00:24;11.70;71.20
25918;DHT22;13899;51.174;4.456;2023-04-03T18:02:53;11.70;72.40
25918;DHT22;13899;51.174;4.456;2023-04-03T18:05:19;11.60;71.80
25918;DHT22;13899;51.174;4.456;2023-04-03T18:07:45;11.60;76.20
25918;DHT22;13899;51.174;4.456;2023-04-03T18:10:11;11.30;77.80
25918;DHT22;13899;51.174;4.456;2023-04-03T18:12:40;11.40;80.20
25918;DHT22;13899;51.174;4.456;2023-04-03T18:15:07;11.60;79.00
25918;DHT22;13899;51.174;4.456;2023-04-03T18:17:33;11.70;79.40
25918;DHT22;13899;51.174;4.456;2023-04-03T18:19:59;11.80;77.60
25918;DHT22;13899;51.174;4.456;2023-04-03T18:22:25;11.30;78.80
25918;DHT22;13899;51.174;4.456;2023-04-03T18:24:52;11.10;83.10
25918;DHT22;13899;51.174;4.456;2023-04-03T18:27:20;11.20;84.20
25918;DHT22;13899;51.174;4.456;2023-04-03T18:29:49;10.90;86.80
25918;DHT22;13899;51.174;4.456;2023-04-03T18:32:18;11.00;88.00
25918;DHT22;13899;51.174;4.456;2023-04-03T18:34:44;10.90;87.60
25918;DHT22;13899;51.174;4.456;2023-04-03T18:37:10;10.80;88.30
25918;DHT22;13899;51.174;4.456;2023-04-03T18:39:36;10.80;90.00
25918;DHT22;13899;51.174;4.456;2023-04-03T18:42:11;10.60;92.70
25918;DHT22;13899;51.174;4.456;2023-04-03T18:44:38;10.80;92.60